Accueil
METAR-TAF:

METAR-TAF

Aéroports :

Tarente, Italie

latitude: 40-31N, longitude: 017-24E, altitude: 64 m

Observation

Le bulletin a été fait il y a 1 heure et 14 minutes, à 09:53 UTC
Vent 9 kt de sud
Température 28°C
Humidité 66%
Pression 1013 hPa
Visibilité 10 km ou plus
Quelques nuages à une hauteur de 4000 ft

METAR: LIBG 130953Z 17009KT 9999 FEW040 28/21 Q1013

Heure: 13:07 (11:07 UTC)

Prévision

Le bulletin a été fait il y a 3 heures et 7 minutes, à 08:00 UTC
Prévision valable du 13 à 09 UTC au 13 à 18 UTC
Vent 5 kt de direction variable
Visibilité 10 km ou plus
Nuages épars à une hauteur de 3000 ft
Evoluant progressivement
du 13 à 09 UTC au 13 à 11 UTC
Vent 13 kt de sud-ouest

TAF: LIBG 130800Z 1309/1318 VRB05KT 9999 SCT030 BECMG 1309/1311 22013KT

Observations et prévisions météorologiques de plus de 4000 aéroports (messages METAR et TAF).

Les stations disponibles sont représentées par des disques jaunes et rouges sur la carte.

Passer la souris dessus pour voir le nom de la station.

Cliquer dessus pour voir les observations et prévisions météorologiques.

Pour changer de carte: cliquez sur les boutons verts avec une croix noire pour zoomer, sur le bouton vert avec un tiret pour effectuer un zoom arrière, ou sur les flèches vertes pour les cartes adjacentes.


METAR-TAF: